Topeka, KS (66601)

2:28 PM CDT on May 26, 2017 (GMT -0500)
Tecumseh Hwy40 | | Change Station

Elev 940 ft 39.05 °N, 95.59 °W | Updated 5 seconds ago

Mostly Cloudy
Mostly Cloudy
82.4 °F
Feels Like 84 °F
N
3.3
Wind Variable Wind from WNW
Gusts 4.0 mph

Today
High -- | Low -- °F
--% Chance of Precip.
Yesterday
High -- | Low -- °F
Precip. -- in
Pressure 29.74 in
Visibility 10.0 miles
Clouds Mostly Cloudy 4200 ft
Heat Index 84 °F
Dew Point 65 °F
Humidity 56%
Rainfall 0.07 in
Snow Depth Not available.
6:01 AM 8:38 PM
New Moon, 2% visible
METAR KTOP 261853Z VRB05KT 10SM BKN042 28/19 A2976 RMK AO2 SLP069 T02780189
Pressure 29.74 in
Visibility 10.0 miles
Clouds Mostly Cloudy 4200 ft
Heat Index 84 °F
Dew Point 65 °F
Humidity 56%
Rainfall 0.07 in
Snow Depth Not available.
6:01 AM 8:38 PM
New Moon, 2% visible
METAR KTOP 261853Z VRB05KT 10SM BKN042 28/19 A2976 RMK AO2 SLP069 T02780189

Get Severe Weather Alerts

Thanks for signing up!

Be on the lookout for a verification email in your inbox.

You'll start receiving the daily forecast at 6 AM.

×

10-Day Weather Forecast

Almanac

Astronomy

May. 26, 2017 Rise Set
Actual Time
Civil Twilight
Nautical Twilight
Astronomical Twilight
Moon
Length of Visible Light
Length of Day
Tomorrow will be .
, % of the Moon is Illuminated

Today's Extremes

State Highs State Lows

Community

WunderPhotos

Category 6

Welcome to Category 6. This is the collective home for Weather Underground's featured writeups by Dr. Jeff Masters (right), Bob Henson (left), Chris Burt, and other regular contributors.

Nearby

Air Quality

  Air Quality AQ Index Pollutant
Not available.

Snow Depth

Station Depth Elevation

Earthquake Activity

City Distance Mag. Time & Date
Minimum magnitude displayed is 2.5.

Coastal Water Temperatures

Place Temperature

Stations

Nearby Weather Stations

Station Location Temp. Windchill Dew Point Humidity Wind Precip. Elev Updated Type
                   

Watches & Warnings

There are currently no watches in effect.